sensor_id;sensor_type;location;lat;lon;timestamp;P1;durP1;ratioP1;P2;durP2;ratioP2
70313;SDS011;57725;47.526;18.986;2023-02-28T00:00:20;9.02;;;5.63;;
70313;SDS011;57725;47.526;18.986;2023-02-28T00:02:46;8.75;;;6.18;;
70313;SDS011;57725;47.526;18.986;2023-02-28T00:05:13;8.57;;;5.90;;
70313;SDS011;57725;47.526;18.986;2023-02-28T00:07:41;9.70;;;5.68;;
70313;SDS011;57725;47.526;18.986;2023-02-28T00:10:08;8.10;;;6.05;;
70313;SDS011;57725;47.526;18.986;2023-02-28T00:12:36;8.70;;;5.38;;
70313;SDS011;57725;47.526;18.986;2023-02-28T00:15:04;8.63;;;6.10;;
70313;SDS011;57725;47.526;18.986;2023-02-28T00:17:33;8.23;;;5.60;;
70313;SDS011;57725;47.526;18.986;2023-02-28T00:20:06;9.35;;;5.85;;
70313;SDS011;57725;47.526;18.986;2023-02-28T00:22:33;9.13;;;5.70;;
70313;SDS011;57725;47.526;18.986;2023-02-28T00:24:59;8.02;;;5.57;;
70313;SDS011;57725;47.526;18.986;2023-02-28T00:27:25;7.20;;;5.82;;
70313;SDS011;57725;47.526;18.986;2023-02-28T00:29:50;8.02;;;6.00;;
70313;SDS011;57725;47.526;18.986;2023-02-28T00:32:15;7.60;;;5.78;;
70313;SDS011;57725;47.526;18.986;2023-02-28T00:34:41;8.82;;;6.38;;
70313;SDS011;57725;47.526;18.986;2023-02-28T00:37:09;9.63;;;5.65;;
70313;SDS011;57725;47.526;18.986;2023-02-28T00:39:37;8.90;;;6.07;;
70313;SDS011;57725;47.526;18.986;2023-02-28T00:42:03;8.20;;;5.70;;
70313;SDS011;57725;47.526;18.986;2023-02-28T00:44:29;9.00;;;6.20;;
70313;SDS011;57725;47.526;18.986;2023-02-28T00:46:55;9.50;;;6.65;;
70313;SDS011;57725;47.526;18.986;2023-02-28T00:49:21;9.00;;;6.60;;
70313;SDS011;57725;47.526;18.986;2023-02-28T00:51:47;10.75;;;6.65;;
70313;SDS011;57725;47.526;18.986;2023-02-28T00:54:15;11.38;;;6.45;;
70313;SDS011;57725;47.526;18.986;2023-02-28T00:56:41;8.98;;;6.10;;
70313;SDS011;57725;47.526;18.986;2023-02-28T00:59:07;9.65;;;6.05;;
70313;SDS011;57725;47.526;18.986;2023-02-28T01:01:33;8.60;;;5.70;;
70313;SDS011;57725;47.526;18.986;2023-02-28T01:04:01;7.72;;;5.60;;
70313;SDS011;57725;47.526;18.986;2023-02-28T01:06:26;8.18;;;6.43;;
70313;SDS011;57725;47.526;18.986;2023-02-28T01:08:52;9.05;;;6.65;;
70313;SDS011;57725;47.526;18.986;2023-02-28T01:11:17;9.80;;;6.80;;
70313;SDS011;57725;47.526;18.986;2023-02-28T01:13:46;11.05;;;7.00;;
70313;SDS011;57725;47.526;18.986;2023-02-28T01:16:14;9.32;;;6.35;;
70313;SDS011;57725;47.526;18.986;2023-02-28T01:18:40;10.18;;;5.78;;
70313;SDS011;57725;47.526;18.986;2023-02-28T01:21:06;10.95;;;6.28;;
70313;SDS011;57725;47.526;18.986;2023-02-28T01:23:36;10.35;;;6.72;;
70313;SDS011;57725;47.526;18.986;2023-02-28T01:26:08;9.95;;;6.25;;
70313;SDS011;57725;47.526;18.986;2023-02-28T01:28:45;9.70;;;6.63;;
70313;SDS011;57725;47.526;18.986;2023-02-28T01:31:13;8.88;;;6.38;;
70313;SDS011;57725;47.526;18.986;2023-02-28T01:33:44;9.65;;;6.55;;
70313;SDS011;57725;47.526;18.986;2023-02-28T01:36:14;9.40;;;6.20;;
70313;SDS011;57725;47.526;18.986;2023-02-28T01:38:44;9.93;;;7.03;;
70313;SDS011;57725;47.526;18.986;2023-02-28T01:41:20;11.02;;;7.32;;
70313;SDS011;57725;47.526;18.986;2023-02-28T01:46:56;11.38;;;6.50;;
70313;SDS011;57725;47.526;18.986;2023-02-28T01:49:21;9.75;;;7.30;;
70313;SDS011;57725;47.526;18.986;2023-02-28T01:51:48;8.93;;;6.15;;
70313;SDS011;57725;47.526;18.986;2023-02-28T01:54:18;9.75;;;6.55;;
70313;SDS011;57725;47.526;18.986;2023-02-28T01:57:12;10.83;;;7.00;;
70313;SDS011;57725;47.526;18.986;2023-02-28T02:00:03;11.95;;;6.90;;
70313;SDS011;57725;47.526;18.986;2023-02-28T02:02:34;9.50;;;6.55;;
70313;SDS011;57725;47.526;18.986;2023-02-28T02:05:06;9.73;;;6.60;;
70313;SDS011;57725;47.526;18.986;2023-02-28T02:07:35;11.52;;;7.80;;
70313;SDS011;57725;47.526;18.986;2023-02-28T02:10:10;11.50;;;6.80;;
70313;SDS011;57725;47.526;18.986;2023-02-28T02:17:56;9.75;;;6.88;;
70313;SDS011;57725;47.526;18.986;2023-02-28T02:23:33;10.35;;;6.43;;
70313;SDS011;57725;47.526;18.986;2023-02-28T02:45:06;10.82;;;6.85;;
70313;SDS011;57725;47.526;18.986;2023-02-28T02:47:35;9.15;;;6.25;;
70313;SDS011;57725;47.526;18.986;2023-02-28T02:50:07;9.88;;;6.15;;
70313;SDS011;57725;47.526;18.986;2023-02-28T02:52:39;8.27;;;6.00;;
70313;SDS011;57725;47.526;18.986;2023-02-28T02:55:08;8.32;;;6.45;;
70313;SDS011;57725;47.526;18.986;2023-02-28T02:57:47;9.40;;;6.38;;
70313;SDS011;57725;47.526;18.986;2023-02-28T03:00:19;9.75;;;6.50;;
70313;SDS011;57725;47.526;18.986;2023-02-28T03:02:48;10.02;;;6.72;;
70313;SDS011;57725;47.526;18.986;2023-02-28T03:05:19;9.65;;;6.50;;
70313;SDS011;57725;47.526;18.986;2023-02-28T03:07:51;7.60;;;5.50;;
70313;SDS011;57725;47.526;18.986;2023-02-28T03:10:30;8.52;;;5.82;;
70313;SDS011;57725;47.526;18.986;2023-02-28T03:13:05;8.80;;;5.95;;
70313;SDS011;57725;47.526;18.986;2023-02-28T03:16:07;10.90;;;6.03;;
70313;SDS011;57725;47.526;18.986;2023-02-28T03:21:32;10.40;;;5.90;;
70313;SDS011;57725;47.526;18.986;2023-02-28T03:26:30;10.10;;;6.50;;
70313;SDS011;57725;47.526;18.986;2023-02-28T03:31:45;10.93;;;6.38;;
70313;SDS011;57725;47.526;18.986;2023-02-28T03:37:02;8.27;;;5.32;;
70313;SDS011;57725;47.526;18.986;2023-02-28T03:39:42;8.55;;;5.50;;
70313;SDS011;57725;47.526;18.986;2023-02-28T03:42:11;7.18;;;5.15;;
70313;SDS011;57725;47.526;18.986;2023-02-28T03:47:28;8.38;;;5.38;;
70313;SDS011;57725;47.526;18.986;2023-02-28T03:50:24;9.18;;;5.20;;
70313;SDS011;57725;47.526;18.986;2023-02-28T03:53:04;9.68;;;5.85;;
70313;SDS011;57725;47.526;18.986;2023-02-28T03:55:37;8.27;;;5.20;;
70313;SDS011;57725;47.526;18.986;2023-02-28T03:58:24;7.25;;;5.00;;
70313;SDS011;57725;47.526;18.986;2023-02-28T04:00:53;8.60;;;5.68;;
70313;SDS011;57725;47.526;18.986;2023-02-28T04:03:24;7.45;;;4.90;;
70313;SDS011;57725;47.526;18.986;2023-02-28T04:05:51;8.95;;;5.05;;
70313;SDS011;57725;47.526;18.986;2023-02-28T04:08:18;7.55;;;5.20;;
70313;SDS011;57725;47.526;18.986;2023-02-28T04:10:44;8.55;;;5.28;;
70313;SDS011;57725;47.526;18.986;2023-02-28T04:13:15;7.85;;;5.10;;
70313;SDS011;57725;47.526;18.986;2023-02-28T04:15:43;9.88;;;5.10;;
70313;SDS011;57725;47.526;18.986;2023-02-28T04:18:09;7.55;;;4.80;;
70313;SDS011;57725;47.526;18.986;2023-02-28T04:20:37;6.28;;;4.82;;
70313;SDS011;57725;47.526;18.986;2023-02-28T04:23:02;6.72;;;4.60;;
70313;SDS011;57725;47.526;18.986;2023-02-28T04:25:27;7.75;;;4.70;;
70313;SDS011;57725;47.526;18.986;2023-02-28T04:28:00;6.70;;;4.78;;
70313;SDS011;57725;47.526;18.986;2023-02-28T04:30:27;8.07;;;5.03;;
70313;SDS011;57725;47.526;18.986;2023-02-28T04:32:54;6.47;;;5.15;;
70313;SDS011;57725;47.526;18.986;2023-02-28T04:35:22;9.60;;;5.60;;
70313;SDS011;57725;47.526;18.986;2023-02-28T04:37:48;8.00;;;4.90;;
70313;SDS011;57725;47.526;18.986;2023-02-28T04:40:20;7.25;;;5.07;;
70313;SDS011;57725;47.526;18.986;2023-02-28T04:42:45;8.60;;;5.05;;
70313;SDS011;57725;47.526;18.986;2023-02-28T04:45:10;6.55;;;5.05;;
70313;SDS011;57725;47.526;18.986;2023-02-28T04:47:38;8.02;;;4.63;;
70313;SDS011;57725;47.526;18.986;2023-02-28T04:50:04;8.20;;;4.75;;
70313;SDS011;57725;47.526;18.986;2023-02-28T04:52:29;8.82;;;4.63;;
70313;SDS011;57725;47.526;18.986;2023-02-28T04:54:55;8.20;;;5.05;;
70313;SDS011;57725;47.526;18.986;2023-02-28T04:57:20;7.53;;;5.07;;
70313;SDS011;57725;47.526;18.986;2023-02-28T04:59:46;8.50;;;5.43;;
70313;SDS011;57725;47.526;18.986;2023-02-28T05:02:11;9.23;;;5.38;;
70313;SDS011;57725;47.526;18.986;2023-02-28T05:04:36;9.13;;;5.32;;
70313;SDS011;57725;47.526;18.986;2023-02-28T05:07:02;8.30;;;4.72;;
70313;SDS011;57725;47.526;18.986;2023-02-28T05:09:28;7.57;;;5.00;;
70313;SDS011;57725;47.526;18.986;2023-02-28T05:11:54;7.93;;;5.28;;
70313;SDS011;57725;47.526;18.986;2023-02-28T05:14:19;8.23;;;5.03;;
70313;SDS011;57725;47.526;18.986;2023-02-28T05:16:45;6.72;;;4.65;;
70313;SDS011;57725;47.526;18.986;2023-02-28T05:19:10;7.85;;;4.70;;
70313;SDS011;57725;47.526;18.986;2023-02-28T05:21:37;7.35;;;4.78;;
70313;SDS011;57725;47.526;18.986;2023-02-28T05:24:05;7.60;;;5.50;;
70313;SDS011;57725;47.526;18.986;2023-02-28T05:26:35;8.02;;;5.00;;
70313;SDS011;57725;47.526;18.986;2023-02-28T05:29:04;7.20;;;5.15;;
70313;SDS011;57725;47.526;18.986;2023-02-28T05:31:34;9.48;;;5.70;;
70313;SDS011;57725;47.526;18.986;2023-02-28T05:33:59;10.15;;;5.53;;
70313;SDS011;57725;47.526;18.986;2023-02-28T05:36:25;7.95;;;4.72;;
70313;SDS011;57725;47.526;18.986;2023-02-28T05:38:53;8.50;;;5.10;;
70313;SDS011;57725;47.526;18.986;2023-02-28T05:41:19;9.23;;;5.63;;
70313;SDS011;57725;47.526;18.986;2023-02-28T05:43:45;7.65;;;4.65;;
70313;SDS011;57725;47.526;18.986;2023-02-28T05:46:10;8.15;;;5.57;;
70313;SDS011;57725;47.526;18.986;2023-02-28T05:48:38;8.00;;;5.25;;
70313;SDS011;57725;47.526;18.986;2023-02-28T05:51:05;8.88;;;5.45;;
70313;SDS011;57725;47.526;18.986;2023-02-28T05:53:32;7.95;;;5.13;;
70313;SDS011;57725;47.526;18.986;2023-02-28T05:55:57;7.47;;;4.68;;
70313;SDS011;57725;47.526;18.986;2023-02-28T05:58:23;9.13;;;5.13;;
70313;SDS011;57725;47.526;18.986;2023-02-28T06:00:50;8.15;;;5.03;;
70313;SDS011;57725;47.526;18.986;2023-02-28T06:03:16;7.65;;;4.88;;
70313;SDS011;57725;47.526;18.986;2023-02-28T06:05:41;7.70;;;5.35;;
70313;SDS011;57725;47.526;18.986;2023-02-28T06:08:06;7.10;;;4.95;;
70313;SDS011;57725;47.526;18.986;2023-02-28T06:10:34;8.40;;;5.20;;
70313;SDS011;57725;47.526;18.986;2023-02-28T06:13:00;7.07;;;4.95;;
70313;SDS011;57725;47.526;18.986;2023-02-28T06:15:27;8.32;;;4.82;;
70313;SDS011;57725;47.526;18.986;2023-02-28T06:17:56;6.93;;;4.50;;
70313;SDS011;57725;47.526;18.986;2023-02-28T06:20:22;7.53;;;5.03;;
70313;SDS011;57725;47.526;18.986;2023-02-28T06:22:48;7.82;;;5.43;;
70313;SDS011;57725;47.526;18.986;2023-02-28T06:25:15;7.10;;;5.30;;
70313;SDS011;57725;47.526;18.986;2023-02-28T06:27:40;7.07;;;4.65;;
70313;SDS011;57725;47.526;18.986;2023-02-28T06:30:06;7.63;;;4.80;;
70313;SDS011;57725;47.526;18.986;2023-02-28T06:32:32;9.85;;;5.45;;
70313;SDS011;57725;47.526;18.986;2023-02-28T06:34:57;10.20;;;5.20;;
70313;SDS011;57725;47.526;18.986;2023-02-28T06:37:23;7.40;;;5.05;;
70313;SDS011;57725;47.526;18.986;2023-02-28T06:39:51;7.70;;;4.70;;
70313;SDS011;57725;47.526;18.986;2023-02-28T06:42:17;8.60;;;5.32;;
70313;SDS011;57725;47.526;18.986;2023-02-28T06:44:44;8.60;;;4.75;;
70313;SDS011;57725;47.526;18.986;2023-02-28T06:47:19;7.28;;;4.65;;
70313;SDS011;57725;47.526;18.986;2023-02-28T06:49:45;8.45;;;5.63;;
70313;SDS011;57725;47.526;18.986;2023-02-28T06:52:10;7.72;;;5.38;;
70313;SDS011;57725;47.526;18.986;2023-02-28T06:54:36;7.65;;;5.15;;
70313;SDS011;57725;47.526;18.986;2023-02-28T06:57:04;6.78;;;4.68;;
70313;SDS011;57725;47.526;18.986;2023-02-28T06:59:29;7.88;;;5.03;;
70313;SDS011;57725;47.526;18.986;2023-02-28T07:01:55;8.48;;;4.57;;
70313;SDS011;57725;47.526;18.986;2023-02-28T07:04:21;6.60;;;4.90;;
70313;SDS011;57725;47.526;18.986;2023-02-28T07:06:51;7.78;;;4.63;;
70313;SDS011;57725;47.526;18.986;2023-02-28T07:09:16;7.47;;;5.00;;
70313;SDS011;57725;47.526;18.986;2023-02-28T07:11:42;6.53;;;4.47;;
70313;SDS011;57725;47.526;18.986;2023-02-28T07:14:08;7.18;;;4.93;;
70313;SDS011;57725;47.526;18.986;2023-02-28T07:16:34;8.00;;;4.90;;
70313;SDS011;57725;47.526;18.986;2023-02-28T07:19:00;6.88;;;4.25;;
70313;SDS011;57725;47.526;18.986;2023-02-28T07:21:25;8.60;;;5.38;;
70313;SDS011;57725;47.526;18.986;2023-02-28T07:23:51;6.90;;;5.18;;
70313;SDS011;57725;47.526;18.986;2023-02-28T07:26:17;7.15;;;5.28;;
70313;SDS011;57725;47.526;18.986;2023-02-28T07:28:46;8.02;;;4.72;;
70313;SDS011;57725;47.526;18.986;2023-02-28T07:31:14;7.63;;;4.68;;
70313;SDS011;57725;47.526;18.986;2023-02-28T07:33:40;5.93;;;4.28;;
70313;SDS011;57725;47.526;18.986;2023-02-28T07:36:07;7.57;;;4.25;;
70313;SDS011;57725;47.526;18.986;2023-02-28T07:38:39;7.78;;;5.05;;
70313;SDS011;57725;47.526;18.986;2023-02-28T07:41:04;6.03;;;4.60;;
70313;SDS011;57725;47.526;18.986;2023-02-28T07:43:30;7.05;;;4.72;;
70313;SDS011;57725;47.526;18.986;2023-02-28T07:46:00;9.77;;;4.75;;
70313;SDS011;57725;47.526;18.986;2023-02-28T07:48:33;7.65;;;4.40;;
70313;SDS011;57725;47.526;18.986;2023-02-28T07:51:01;7.32;;;4.20;;
70313;SDS011;57725;47.526;18.986;2023-02-28T07:53:27;6.97;;;4.75;;
70313;SDS011;57725;47.526;18.986;2023-02-28T07:55:57;7.35;;;4.60;;
70313;SDS011;57725;47.526;18.986;2023-02-28T07:58:24;7.43;;;4.85;;
70313;SDS011;57725;47.526;18.986;2023-02-28T08:00:50;6.60;;;4.40;;
70313;SDS011;57725;47.526;18.986;2023-02-28T08:03:19;7.72;;;4.85;;
70313;SDS011;57725;47.526;18.986;2023-02-28T08:05:48;7.32;;;4.75;;
70313;SDS011;57725;47.526;18.986;2023-02-28T08:08:14;7.40;;;4.88;;
70313;SDS011;57725;47.526;18.986;2023-02-28T08:10:40;8.40;;;4.93;;
70313;SDS011;57725;47.526;18.986;2023-02-28T08:13:08;7.55;;;4.50;;
70313;SDS011;57725;47.526;18.986;2023-02-28T08:15:38;7.03;;;4.75;;
70313;SDS011;57725;47.526;18.986;2023-02-28T08:18:06;8.23;;;5.15;;
70313;SDS011;57725;47.526;18.986;2023-02-28T08:20:31;7.00;;;4.65;;
70313;SDS011;57725;47.526;18.986;2023-02-28T08:22:59;7.13;;;4.80;;
70313;SDS011;57725;47.526;18.986;2023-02-28T08:25:29;7.35;;;4.82;;
70313;SDS011;57725;47.526;18.986;2023-02-28T08:27:55;6.63;;;4.50;;
70313;SDS011;57725;47.526;18.986;2023-02-28T08:30:20;7.35;;;4.97;;
70313;SDS011;57725;47.526;18.986;2023-02-28T08:32:45;6.03;;;4.38;;
70313;SDS011;57725;47.526;18.986;2023-02-28T08:35:11;7.15;;;4.60;;
70313;SDS011;57725;47.526;18.986;2023-02-28T08:37:36;6.72;;;4.45;;
70313;SDS011;57725;47.526;18.986;2023-02-28T08:40:02;7.28;;;4.43;;
70313;SDS011;57725;47.526;18.986;2023-02-28T08:42:29;6.57;;;4.30;;
70313;SDS011;57725;47.526;18.986;2023-02-28T08:44:54;6.60;;;4.30;;
70313;SDS011;57725;47.526;18.986;2023-02-28T08:47:19;8.27;;;4.90;;
70313;SDS011;57725;47.526;18.986;2023-02-28T08:49:45;6.68;;;4.32;;
70313;SDS011;57725;47.526;18.986;2023-02-28T08:52:11;7.35;;;4.80;;
70313;SDS011;57725;47.526;18.986;2023-02-28T08:54:36;6.78;;;4.25;;
70313;SDS011;57725;47.526;18.986;2023-02-28T08:57:02;7.82;;;4.50;;
70313;SDS011;57725;47.526;18.986;2023-02-28T08:59:27;6.63;;;4.45;;
70313;SDS011;57725;47.526;18.986;2023-02-28T09:01:55;6.93;;;5.00;;
70313;SDS011;57725;47.526;18.986;2023-02-28T09:04:23;7.22;;;4.53;;
70313;SDS011;57725;47.526;18.986;2023-02-28T09:06:49;7.53;;;4.60;;
70313;SDS011;57725;47.526;18.986;2023-02-28T09:09:15;8.05;;;4.78;;
70313;SDS011;57725;47.526;18.986;2023-02-28T09:11:41;5.50;;;4.03;;
70313;SDS011;57725;47.526;18.986;2023-02-28T09:14:08;6.63;;;4.13;;
70313;SDS011;57725;47.526;18.986;2023-02-28T09:16:43;7.90;;;4.75;;
70313;SDS011;57725;47.526;18.986;2023-02-28T09:19:13;5.70;;;4.25;;
70313;SDS011;57725;47.526;18.986;2023-02-28T09:21:39;7.53;;;4.72;;
70313;SDS011;57725;47.526;18.986;2023-02-28T09:24:08;6.47;;;4.05;;
70313;SDS011;57725;47.526;18.986;2023-02-28T09:26:34;7.07;;;4.32;;
70313;SDS011;57725;47.526;18.986;2023-02-28T09:29:01;6.93;;;4.13;;
70313;SDS011;57725;47.526;18.986;2023-02-28T09:31:30;7.15;;;4.60;;
70313;SDS011;57725;47.526;18.986;2023-02-28T09:33:56;5.90;;;4.03;;
70313;SDS011;57725;47.526;18.986;2023-02-28T09:36:22;6.07;;;4.10;;
70313;SDS011;57725;47.526;18.986;2023-02-28T09:38:53;6.88;;;4.80;;
70313;SDS011;57725;47.526;18.986;2023-02-28T09:41:22;6.35;;;4.05;;
70313;SDS011;57725;47.526;18.986;2023-02-28T09:43:56;6.88;;;4.22;;
70313;SDS011;57725;47.526;18.986;2023-02-28T09:49:16;7.35;;;4.35;;
70313;SDS011;57725;47.526;18.986;2023-02-28T09:51:50;8.02;;;4.25;;
70313;SDS011;57725;47.526;18.986;2023-02-28T09:54:17;6.18;;;4.10;;
70313;SDS011;57725;47.526;18.986;2023-02-28T09:56:58;5.32;;;3.88;;
70313;SDS011;57725;47.526;18.986;2023-02-28T09:59:38;7.63;;;4.40;;
70313;SDS011;57725;47.526;18.986;2023-02-28T10:05:16;6.32;;;4.50;;
70313;SDS011;57725;47.526;18.986;2023-02-28T10:10:52;5.95;;;3.97;;
70313;SDS011;57725;47.526;18.986;2023-02-28T10:15:50;4.97;;;3.60;;
70313;SDS011;57725;47.526;18.986;2023-02-28T10:21:24;6.38;;;3.83;;
70313;SDS011;57725;47.526;18.986;2023-02-28T10:27:13;4.75;;;3.10;;
70313;SDS011;57725;47.526;18.986;2023-02-28T10:29:46;5.55;;;3.90;;
70313;SDS011;57725;47.526;18.986;2023-02-28T10:32:20;7.40;;;4.10;;
70313;SDS011;57725;47.526;18.986;2023-02-28T10:34:52;6.43;;;3.63;;
70313;SDS011;57725;47.526;18.986;2023-02-28T10:37:26;6.15;;;4.18;;
70313;SDS011;57725;47.526;18.986;2023-02-28T10:39:54;6.72;;;4.20;;
70313;SDS011;57725;47.526;18.986;2023-02-28T10:42:24;4.95;;;3.78;;
70313;SDS011;57725;47.526;18.986;2023-02-28T10:45:25;6.55;;;4.03;;
70313;SDS011;57725;47.526;18.986;2023-02-28T10:50:28;5.53;;;4.15;;
70313;SDS011;57725;47.526;18.986;2023-02-28T10:55:37;6.32;;;4.03;;
70313;SDS011;57725;47.526;18.986;2023-02-28T10:58:02;6.28;;;3.80;;
70313;SDS011;57725;47.526;18.986;2023-02-28T11:00:39;6.63;;;3.80;;
70313;SDS011;57725;47.526;18.986;2023-02-28T11:03:06;4.43;;;3.55;;
70313;SDS011;57725;47.526;18.986;2023-02-28T11:05:57;7.20;;;4.00;;
70313;SDS011;57725;47.526;18.986;2023-02-28T11:08:23;6.00;;;4.00;;
70313;SDS011;57725;47.526;18.986;2023-02-28T11:10:59;7.05;;;3.83;;
70313;SDS011;57725;47.526;18.986;2023-02-28T11:13:33;5.05;;;3.53;;
70313;SDS011;57725;47.526;18.986;2023-02-28T11:16:02;5.70;;;3.80;;
70313;SDS011;57725;47.526;18.986;2023-02-28T11:18:31;6.00;;;4.05;;
70313;SDS011;57725;47.526;18.986;2023-02-28T11:21:09;5.63;;;4.03;;
70313;SDS011;57725;47.526;18.986;2023-02-28T11:23:43;5.95;;;4.35;;
70313;SDS011;57725;47.526;18.986;2023-02-28T11:26:08;5.35;;;3.70;;
70313;SDS011;57725;47.526;18.986;2023-02-28T11:28:41;6.63;;;4.55;;
70313;SDS011;57725;47.526;18.986;2023-02-28T11:33:46;5.15;;;3.92;;
70313;SDS011;57725;47.526;18.986;2023-02-28T11:36:28;5.75;;;4.00;;
70313;SDS011;57725;47.526;18.986;2023-02-28T11:38:59;6.47;;;4.35;;
70313;SDS011;57725;47.526;18.986;2023-02-28T11:47:37;5.47;;;4.10;;
70313;SDS011;57725;47.526;18.986;2023-02-28T11:55:32;6.40;;;4.57;;
70313;SDS011;57725;47.526;18.986;2023-02-28T12:08:49;6.03;;;4.00;;
70313;SDS011;57725;47.526;18.986;2023-02-28T12:11:29;5.53;;;3.90;;
70313;SDS011;57725;47.526;18.986;2023-02-28T12:22:28;6.18;;;4.22;;
70313;SDS011;57725;47.526;18.986;2023-02-28T12:25:02;8.02;;;4.60;;
70313;SDS011;57725;47.526;18.986;2023-02-28T12:27:53;6.38;;;4.68;;
70313;SDS011;57725;47.526;18.986;2023-02-28T12:30:24;6.18;;;4.07;;
70313;SDS011;57725;47.526;18.986;2023-02-28T12:33:01;6.65;;;4.32;;
70313;SDS011;57725;47.526;18.986;2023-02-28T12:35:37;6.88;;;4.90;;
70313;SDS011;57725;47.526;18.986;2023-02-28T12:38:28;7.00;;;4.28;;
70313;SDS011;57725;47.526;18.986;2023-02-28T12:41:03;7.50;;;4.55;;
70313;SDS011;57725;47.526;18.986;2023-02-28T12:43:37;7.50;;;4.97;;
70313;SDS011;57725;47.526;18.986;2023-02-28T12:48:56;6.57;;;3.90;;
70313;SDS011;57725;47.526;18.986;2023-02-28T12:51:24;6.68;;;5.03;;
70313;SDS011;57725;47.526;18.986;2023-02-28T12:59:16;6.10;;;4.32;;
70313;SDS011;57725;47.526;18.986;2023-02-28T13:10:06;7.75;;;4.80;;
70313;SDS011;57725;47.526;18.986;2023-02-28T13:12:35;7.85;;;4.97;;
70313;SDS011;57725;47.526;18.986;2023-02-28T13:15:16;7.18;;;5.15;;
70313;SDS011;57725;47.526;18.986;2023-02-28T13:17:50;6.50;;;4.32;;
70313;SDS011;57725;47.526;18.986;2023-02-28T13:22:59;7.13;;;5.28;;
70313;SDS011;57725;47.526;18.986;2023-02-28T13:28:12;6.55;;;4.60;;
70313;SDS011;57725;47.526;18.986;2023-02-28T13:35:45;6.63;;;4.90;;
70313;SDS011;57725;47.526;18.986;2023-02-28T13:38:23;7.70;;;4.93;;
70313;SDS011;57725;47.526;18.986;2023-02-28T13:41:09;6.38;;;4.68;;
70313;SDS011;57725;47.526;18.986;2023-02-28T13:44:10;7.68;;;4.88;;
70313;SDS011;57725;47.526;18.986;2023-02-28T14:11:51;6.50;;;4.93;;
70313;SDS011;57725;47.526;18.986;2023-02-28T14:17:04;7.87;;;5.57;;
70313;SDS011;57725;47.526;18.986;2023-02-28T14:19:41;6.28;;;4.45;;
70313;SDS011;57725;47.526;18.986;2023-02-28T14:27:58;6.38;;;4.63;;
70313;SDS011;57725;47.526;18.986;2023-02-28T14:36:24;7.95;;;5.00;;
70313;SDS011;57725;47.526;18.986;2023-02-28T14:38:53;7.22;;;4.95;;
70313;SDS011;57725;47.526;18.986;2023-02-28T14:43:54;7.53;;;5.45;;
70313;SDS011;57725;47.526;18.986;2023-02-28T14:46:58;6.32;;;4.80;;
70313;SDS011;57725;47.526;18.986;2023-02-28T14:52:01;6.70;;;4.57;;
70313;SDS011;57725;47.526;18.986;2023-02-28T14:54:57;6.50;;;4.38;;
70313;SDS011;57725;47.526;18.986;2023-02-28T14:57:33;7.15;;;4.97;;
70313;SDS011;57725;47.526;18.986;2023-02-28T15:02:43;7.50;;;4.63;;
70313;SDS011;57725;47.526;18.986;2023-02-28T15:07:37;8.13;;;5.03;;
70313;SDS011;57725;47.526;18.986;2023-02-28T15:12:39;7.22;;;5.10;;
70313;SDS011;57725;47.526;18.986;2023-02-28T15:15:17;7.25;;;4.93;;
70313;SDS011;57725;47.526;18.986;2023-02-28T15:17:46;8.98;;;5.28;;
70313;SDS011;57725;47.526;18.986;2023-02-28T15:20:15;7.82;;;5.40;;
70313;SDS011;57725;47.526;18.986;2023-02-28T15:22:50;7.45;;;4.88;;
70313;SDS011;57725;47.526;18.986;2023-02-28T15:25:21;6.53;;;4.85;;
70313;SDS011;57725;47.526;18.986;2023-02-28T15:27:52;7.13;;;5.07;;
70313;SDS011;57725;47.526;18.986;2023-02-28T15:30:21;8.07;;;5.50;;
70313;SDS011;57725;47.526;18.986;2023-02-28T15:33:15;6.93;;;5.00;;
70313;SDS011;57725;47.526;18.986;2023-02-28T15:35:42;7.43;;;5.03;;
70313;SDS011;57725;47.526;18.986;2023-02-28T15:38:14;6.93;;;5.25;;
70313;SDS011;57725;47.526;18.986;2023-02-28T15:40:56;6.63;;;4.75;;
70313;SDS011;57725;47.526;18.986;2023-02-28T15:46:06;7.15;;;4.55;;
70313;SDS011;57725;47.526;18.986;2023-02-28T15:48:45;7.68;;;4.90;;
70313;SDS011;57725;47.526;18.986;2023-02-28T15:51:22;6.57;;;5.03;;
70313;SDS011;57725;47.526;18.986;2023-02-28T15:53:51;6.32;;;4.47;;
70313;SDS011;57725;47.526;18.986;2023-02-28T15:59:29;7.10;;;5.25;;
70313;SDS011;57725;47.526;18.986;2023-02-28T16:04:56;8.07;;;4.93;;
70313;SDS011;57725;47.526;18.986;2023-02-28T16:07:27;6.63;;;5.07;;
70313;SDS011;57725;47.526;18.986;2023-02-28T16:09:53;8.20;;;4.70;;
70313;SDS011;57725;47.526;18.986;2023-02-28T16:12:22;7.38;;;5.05;;
70313;SDS011;57725;47.526;18.986;2023-02-28T16:14:51;7.53;;;5.60;;
70313;SDS011;57725;47.526;18.986;2023-02-28T16:17:22;7.30;;;4.95;;
70313;SDS011;57725;47.526;18.986;2023-02-28T16:19:49;8.65;;;4.97;;
70313;SDS011;57725;47.526;18.986;2023-02-28T16:22:14;6.97;;;4.95;;
70313;SDS011;57725;47.526;18.986;2023-02-28T16:24:42;7.72;;;5.00;;
70313;SDS011;57725;47.526;18.986;2023-02-28T16:27:11;7.20;;;5.40;;
70313;SDS011;57725;47.526;18.986;2023-02-28T16:29:47;6.65;;;4.47;;
70313;SDS011;57725;47.526;18.986;2023-02-28T16:32:14;6.55;;;5.07;;
70313;SDS011;57725;47.526;18.986;2023-02-28T16:34:41;7.47;;;5.30;;
70313;SDS011;57725;47.526;18.986;2023-02-28T16:37:12;7.07;;;5.10;;
70313;SDS011;57725;47.526;18.986;2023-02-28T16:39:40;8.25;;;5.43;;
70313;SDS011;57725;47.526;18.986;2023-02-28T16:42:09;6.05;;;4.95;;
70313;SDS011;57725;47.526;18.986;2023-02-28T16:44:42;6.78;;;4.80;;
70313;SDS011;57725;47.526;18.986;2023-02-28T16:47:08;7.10;;;4.88;;
70313;SDS011;57725;47.526;18.986;2023-02-28T16:49:35;6.85;;;4.55;;
70313;SDS011;57725;47.526;18.986;2023-02-28T16:52:09;7.65;;;5.18;;
70313;SDS011;57725;47.526;18.986;2023-02-28T16:54:36;7.65;;;5.53;;
70313;SDS011;57725;47.526;18.986;2023-02-28T16:57:03;7.45;;;5.30;;
70313;SDS011;57725;47.526;18.986;2023-02-28T16:59:42;6.72;;;5.18;;
70313;SDS011;57725;47.526;18.986;2023-02-28T17:02:12;8.23;;;5.55;;
70313;SDS011;57725;47.526;18.986;2023-02-28T17:04:39;9.93;;;5.88;;
70313;SDS011;57725;47.526;18.986;2023-02-28T17:07:06;7.32;;;4.90;;
70313;SDS011;57725;47.526;18.986;2023-02-28T17:09:36;6.93;;;5.22;;
70313;SDS011;57725;47.526;18.986;2023-02-28T17:12:01;7.57;;;5.32;;
70313;SDS011;57725;47.526;18.986;2023-02-28T17:14:26;8.55;;;5.72;;
70313;SDS011;57725;47.526;18.986;2023-02-28T17:16:54;7.07;;;5.18;;
70313;SDS011;57725;47.526;18.986;2023-02-28T17:19:25;7.00;;;5.40;;
70313;SDS011;57725;47.526;18.986;2023-02-28T17:21:51;8.25;;;5.65;;
70313;SDS011;57725;47.526;18.986;2023-02-28T17:24:19;7.50;;;5.00;;
70313;SDS011;57725;47.526;18.986;2023-02-28T17:26:44;8.85;;;5.72;;
70313;SDS011;57725;47.526;18.986;2023-02-28T17:29:14;7.43;;;5.13;;
70313;SDS011;57725;47.526;18.986;2023-02-28T17:31:41;8.30;;;5.30;;
70313;SDS011;57725;47.526;18.986;2023-02-28T17:34:06;8.07;;;5.60;;
70313;SDS011;57725;47.526;18.986;2023-02-28T17:36:32;7.65;;;5.40;;
70313;SDS011;57725;47.526;18.986;2023-02-28T17:39:02;8.90;;;5.88;;
70313;SDS011;57725;47.526;18.986;2023-02-28T17:41:31;7.00;;;5.80;;
70313;SDS011;57725;47.526;18.986;2023-02-28T17:43:57;7.78;;;5.32;;
70313;SDS011;57725;47.526;18.986;2023-02-28T17:46:23;10.77;;;5.80;;
70313;SDS011;57725;47.526;18.986;2023-02-28T17:48:53;7.38;;;5.28;;
70313;SDS011;57725;47.526;18.986;2023-02-28T17:51:21;8.13;;;5.45;;
70313;SDS011;57725;47.526;18.986;2023-02-28T17:53:47;8.23;;;5.82;;
70313;SDS011;57725;47.526;18.986;2023-02-28T17:56:16;10.02;;;5.82;;